Dades meteomassalio
Diari Summary for Maig 19, 2017 Units:  English    Metric   Both
« Previous Day
Next Day »
Diari Semanal Mensual Anual Personalitzat
  Maxima: Minima: Mijana:
Temperatura: TemperatureC °F 9.4 °F 14.6 °F
Rosada: DewpointC °F 5.7 °F 6.6 °F
Humitat: Humidity % 39 % 61 %
Velocitat del vent: WindSpeedKMH mph 0.0 mph 19.5 mph
Racha vent: WindSpeedGustKMH mph - -
Vent:- - WNW
Pressio: PressurehPa in 1018.5 in -
Pluja: 0.0 in    
Historical Graphs
 
 
Tabular Data for Maig 19, 2017
Time Temperature Dew Point Pressure Wind Wind Speed Wind Gust Humidity Rainfall Rate (Hourly) solar Conditions
TemperatureC °F DewpointC °F PressurehPa in Calm     Humidity % HourlyPrecipMM in SolarRadiationWatts/m^2 W/m2 Conditions
00:00 11.0 °F 7.1 °F 1018.5 in WNW 35.2 mph 35.2 mph 77 % 0.0 in 0.0 W/m2 RA
00:05 11.1 °F 7.0 °F 1018.5 in WNW 33.3 mph 33.3 mph 76 % 0.0 in 0.0 W/m2 CLR
00:10 11.2 °F 7.1 °F 1018.5 in WNW 29.6 mph 29.6 mph 76 % 0.0 in 0.0 W/m2 CLR
00:15 11.2 °F 7.1 °F 1018.5 in West 31.5 mph 31.5 mph 76 % 0.0 in 0.0 W/m2 CLR
00:20 11.1 °F 7.1 °F 1018.5 in West 22.2 mph 22.2 mph 76 % 0.0 in 0.0 W/m2 CLR
00:25 11.0 °F 7.1 °F 1018.5 in WNW 20.4 mph 20.4 mph 77 % 0.0 in 0.0 W/m2 CLR
00:30 11.1 °F 7.2 °F 1018.5 in West 25.9 mph 25.9 mph 77 % 0.0 in 0.0 W/m2 CLR
00:35 11.0 °F 7.1 °F 1018.8 in West 25.9 mph 25.9 mph 77 % 0.0 in 0.0 W/m2 CLR
00:40 11.0 °F 6.9 °F 1018.8 in NNW 29.6 mph 29.6 mph 76 % 0.0 in 0.0 W/m2 CLR
00:45 10.9 °F 6.9 °F 1018.8 in WNW 20.4 mph 20.4 mph 76 % 0.0 in 0.0 W/m2 CLR
00:50 11.0 °F 6.9 °F 1018.8 in WNW 24.1 mph 24.1 mph 76 % 0.0 in 0.0 W/m2 CLR
00:55 11.0 °F 6.9 °F 1018.8 in WNW 37.0 mph 37.0 mph 76 % 0.0 in 0.0 W/m2 CLR
01:00 11.0 °F 6.9 °F 1018.8 in West 27.8 mph 27.8 mph 76 % 0.0 in 0.0 W/m2 CLR
01:05 11.0 °F 6.9 °F 1018.8 in West 31.5 mph 31.5 mph 76 % 0.0 in 0.0 W/m2 CLR
01:10 11.0 °F 6.9 °F 1018.8 in West 27.8 mph 27.8 mph 76 % 0.0 in 0.0 W/m2 CLR
01:11 11.1 °F 7.0 °F 1018.8 in West 27.8 mph 27.8 mph 76 % 0.0 in 0.0 W/m2 CLR
01:16 10.9 °F 6.9 °F 1018.8 in West 31.5 mph 31.5 mph 76 % 0.0 in 0.0 W/m2 CLR
01:21 10.9 °F 6.9 °F 1018.8 in WNW 31.5 mph 31.5 mph 76 % 0.0 in 0.0 W/m2 CLR
01:26 10.8 °F 6.8 °F 1018.8 in WNW 29.6 mph 29.6 mph 76 % 0.0 in 0.0 W/m2 CLR
01:31 10.8 °F 6.9 °F 1018.8 in WNW 22.2 mph 22.2 mph 77 % 0.0 in 0.0 W/m2 CLR
01:36 10.7 °F 6.8 °F 1018.8 in West 18.5 mph 18.5 mph 77 % 0.0 in 0.0 W/m2 CLR
01:41 10.6 °F 6.7 °F 1018.8 in WNW 18.5 mph 18.5 mph 77 % 0.0 in 0.0 W/m2 CLR
01:46 10.5 °F 6.8 °F 1018.8 in West 20.4 mph 20.4 mph 78 % 0.0 in 0.0 W/m2 CLR
01:51 10.5 °F 6.8 °F 1018.8 in NW 19.3 mph 19.3 mph 78 % 0.0 in 0.0 W/m2 CLR
01:56 10.5 °F 6.8 °F 1018.8 in WNW 18.5 mph 18.5 mph 78 % 0.0 in 0.0 W/m2 CLR
01:57 10.5 °F 6.6 °F 1018.8 in WNW 18.5 mph 18.5 mph 77 % 0.0 in 0.0 W/m2 CLR
02:02 10.5 °F 6.6 °F 1018.8 in WNW 18.5 mph 18.5 mph 77 % 0.0 in 0.0 W/m2 CLR
02:07 10.6 °F 6.7 °F 1018.8 in WNW 13.0 mph 13.0 mph 77 % 0.0 in 0.0 W/m2 CLR
02:12 10.5 °F 6.6 °F 1018.8 in West 14.8 mph 14.8 mph 77 % 0.0 in 0.0 W/m2 CLR
02:17 10.5 °F 6.6 °F 1018.8 in WNW 13.0 mph 13.0 mph 77 % 0.0 in 0.0 W/m2 CLR
02:22 10.5 °F 6.6 °F 1018.8 in West 18.5 mph 18.5 mph 77 % 0.0 in 0.0 W/m2 CLR
02:27 10.5 °F 6.6 °F 1018.8 in WNW 18.5 mph 18.5 mph 77 % 0.0 in 0.0 W/m2 CLR
02:32 10.5 °F 6.6 °F 1018.8 in NW 14.8 mph 14.8 mph 77 % 0.0 in 0.0 W/m2 CLR
02:37 10.5 °F 6.6 °F 1018.8 in West 11.3 mph 11.3 mph 77 % 0.0 in 0.0 W/m2 CLR
02:42 10.5 °F 6.4 °F 1018.8 in WSW 18.5 mph 18.5 mph 76 % 0.0 in 0.0 W/m2 CLR
02:47 10.5 °F 6.4 °F 1018.8 in WNW 16.7 mph 16.7 mph 76 % 0.0 in 0.0 W/m2 CLR
02:52 10.4 °F 6.4 °F 1018.8 in WNW 18.5 mph 18.5 mph 76 % 0.0 in 0.0 W/m2 CLR
02:57 10.5 °F 6.4 °F 1018.8 in WNW 22.5 mph 22.5 mph 76 % 0.0 in 0.0 W/m2 CLR
03:02 10.5 °F 6.4 °F 1018.5 in WNW 31.5 mph 31.5 mph 76 % 0.0 in 0.0 W/m2 CLR
03:07 10.6 °F 6.5 °F 1018.8 in WNW 29.6 mph 29.6 mph 76 % 0.0 in 0.0 W/m2 CLR
03:12 10.5 °F 6.4 °F 1018.8 in WNW 31.5 mph 31.5 mph 76 % 0.0 in 0.0 W/m2 CLR
03:17 10.6 °F 6.5 °F 1018.8 in NW 37.0 mph 37.0 mph 76 % 0.0 in 0.0 W/m2 CLR
03:22 10.6 °F 6.5 °F 1018.8 in WNW 27.8 mph 27.8 mph 76 % 0.0 in 0.0 W/m2 CLR
03:27 10.6 °F 6.5 °F 1018.8 in WNW 31.5 mph 31.5 mph 76 % 0.0 in 0.0 W/m2 CLR
03:32 10.5 °F 6.4 °F 1018.8 in WNW 24.1 mph 24.1 mph 76 % 0.0 in 0.0 W/m2 CLR
03:37 10.5 °F 6.4 °F 1018.8 in West 31.5 mph 31.5 mph 76 % 0.0 in 0.0 W/m2 CLR
03:42 10.4 °F 6.4 °F 1018.8 in West 24.1 mph 24.1 mph 76 % 0.0 in 0.0 W/m2 CLR
03:47 10.4 °F 6.6 °F 1018.8 in West 22.2 mph 22.2 mph 77 % 0.0 in 0.0 W/m2 CLR
03:52 10.4 °F 6.4 °F 1018.8 in WNW 25.9 mph 25.9 mph 76 % 0.0 in 0.0 W/m2 CLR
03:57 10.3 °F 6.5 °F 1018.8 in NW 27.4 mph 27.4 mph 77 % 0.0 in 0.0 W/m2 CLR
04:02 10.3 °F 6.4 °F 1019.2 in WNW 22.5 mph 22.5 mph 77 % 0.0 in 0.0 W/m2 CLR
04:07 10.3 °F 6.4 °F 1018.8 in WNW 18.5 mph 18.5 mph 77 % 0.0 in 0.0 W/m2 CLR
04:12 10.2 °F 6.4 °F 1019.2 in WNW 20.9 mph 20.9 mph 77 % 0.0 in 0.0 W/m2 CLR
04:17 10.2 °F 6.4 °F 1019.2 in WNW 16.1 mph 16.1 mph 77 % 0.0 in 0.0 W/m2 CLR
04:22 10.1 °F 6.3 °F 1019.2 in West 24.1 mph 24.1 mph 77 % 0.0 in 0.0 W/m2 CLR
04:27 10.1 °F 6.3 °F 1019.2 in WNW 18.5 mph 18.5 mph 77 % 0.0 in 0.0 W/m2 CLR
04:32 10.1 °F 6.2 °F 1019.2 in WNW 22.2 mph 22.2 mph 77 % 0.0 in 0.0 W/m2 CLR
04:37 10.0 °F 6.2 °F 1019.2 in West 18.5 mph 18.5 mph 77 % 0.0 in 0.0 W/m2 CLR
04:42 10.0 °F 6.3 °F 1019.2 in WNW 22.2 mph 22.2 mph 78 % 0.0 in 0.0 W/m2 CLR
04:48 10.0 °F 6.3 °F 1019.2 in West 20.4 mph 20.4 mph 78 % 0.0 in 0.0 W/m2 CLR
04:53 9.9 °F 6.3 °F 1019.5 in West 18.5 mph 18.5 mph 78 % 0.0 in 0.0 W/m2 CLR
04:58 9.9 °F 6.3 °F 1019.5 in WNW 18.5 mph 18.5 mph 78 % 0.0 in 0.0 W/m2 CLR
05:03 9.9 °F 6.3 °F 1019.5 in NW 18.5 mph 18.5 mph 78 % 0.0 in 0.0 W/m2 CLR
05:08 9.9 °F 6.2 °F 1019.5 in WNW 18.5 mph 18.5 mph 78 % 0.0 in 0.0 W/m2 CLR
05:13 9.9 °F 6.1 °F 1019.5 in WNW 22.2 mph 22.2 mph 77 % 0.0 in 0.0 W/m2 CLR
05:18 9.9 °F 6.2 °F 1019.5 in WNW 18.5 mph 18.5 mph 78 % 0.0 in 0.0 W/m2 CLR
05:23 9.9 °F 6.1 °F 1019.5 in WNW 18.5 mph 18.5 mph 77 % 0.0 in 0.0 W/m2 CLR
05:28 9.9 °F 6.1 °F 1019.5 in WNW 18.5 mph 18.5 mph 77 % 0.0 in 0.0 W/m2 CLR
05:33 9.9 °F 6.1 °F 1019.5 in WNW 14.8 mph 14.8 mph 77 % 0.0 in 0.0 W/m2 CLR
05:38 9.8 °F 6.1 °F 1019.5 in WNW 13.0 mph 13.0 mph 78 % 0.0 in 0.0 W/m2 CLR
05:43 9.7 °F 6.1 °F 1019.5 in WNW 14.8 mph 14.8 mph 78 % 0.0 in 0.0 W/m2 CLR
05:48 9.7 °F 6.1 °F 1019.5 in WNW 16.7 mph 16.7 mph 78 % 0.0 in 0.0 W/m2 CLR
05:53 9.7 °F 6.0 °F 1019.5 in WNW 20.4 mph 20.4 mph 78 % 0.0 in 0.0 W/m2 CLR
05:58 9.6 °F 5.9 °F 1019.5 in WNW 18.5 mph 18.5 mph 78 % 0.0 in 0.0 W/m2 CLR
06:03 9.6 °F 5.9 °F 1019.5 in WNW 24.1 mph 24.1 mph 78 % 0.0 in 0.0 W/m2 CLR
06:08 9.6 °F 5.8 °F 1019.5 in West 18.5 mph 18.5 mph 77 % 0.0 in 0.0 W/m2 CLR
06:13 9.6 °F 5.9 °F 1019.5 in WNW 20.4 mph 20.4 mph 78 % 0.0 in 0.0 W/m2 CLR
06:18 9.6 °F 5.7 °F 1019.5 in West 25.9 mph 25.9 mph 77 % 0.0 in 0.0 W/m2 CLR
06:23 9.6 °F 5.8 °F 1019.5 in West 25.9 mph 25.9 mph 77 % 0.0 in 0.0 W/m2 CLR
06:28 9.6 °F 5.7 °F 1019.9 in West 25.9 mph 25.9 mph 77 % 0.0 in 0.0 W/m2 OVC
06:33 9.5 °F 5.8 °F 1019.9 in WNW 24.1 mph 24.1 mph 78 % 0.0 in 0.0 W/m2 OVC
06:38 9.6 °F 5.9 °F 1019.9 in WNW 24.1 mph 24.1 mph 78 % 0.0 in 5.0 W/m2 OVC
06:43 9.5 °F 5.8 °F 1020.2 in WNW 18.5 mph 18.5 mph 78 % 0.0 in 7.0 W/m2 BKN
06:48 9.4 °F 5.8 °F 1020.2 in West 18.5 mph 18.5 mph 78 % 0.0 in 9.0 W/m2 BKN
06:53 9.5 °F 5.8 °F 1020.2 in WNW 22.2 mph 22.2 mph 78 % 0.0 in 11.0 W/m2 BKN
06:58 9.5 °F 5.8 °F 1020.2 in West 18.5 mph 18.5 mph 78 % 0.0 in 12.0 W/m2 BKN
07:03 9.4 °F 5.8 °F 1020.2 in West 18.5 mph 18.5 mph 78 % 0.0 in 14.0 W/m2 BKN
07:08 9.5 °F 5.7 °F 1020.2 in West 18.5 mph 18.5 mph 77 % 0.0 in 18.0 W/m2 BKN
07:13 9.6 °F 5.8 °F 1020.5 in WNW 20.4 mph 20.4 mph 77 % 0.0 in 23.0 W/m2 BKN
07:18 9.7 °F 5.7 °F 1020.5 in WNW 13.0 mph 13.0 mph 76 % 0.0 in 28.0 W/m2 BKN
07:23 9.8 °F 5.7 °F 1020.5 in WNW 16.7 mph 16.7 mph 76 % 0.0 in 46.0 W/m2 SCT
07:28 9.8 °F 5.8 °F 1020.5 in WNW 18.5 mph 18.5 mph 76 % 0.0 in 60.0 W/m2 SCT
07:33 9.8 °F 5.8 °F 1020.9 in WNW 14.5 mph 14.5 mph 76 % 0.0 in 72.0 W/m2 FEW
07:38 9.9 °F 5.9 °F 1020.9 in WNW 12.9 mph 12.9 mph 76 % 0.0 in 86.0 W/m2 FEW
07:43 10.1 °F 5.8 °F 1020.9 in WNW 14.8 mph 14.8 mph 75 % 0.0 in 100.0 W/m2 CLR
07:48 10.2 °F 5.9 °F 1020.9 in WNW 25.7 mph 25.7 mph 75 % 0.0 in 121.0 W/m2 CLR
07:53 10.3 °F 5.9 °F 1020.9 in WNW 29.6 mph 29.6 mph 74 % 0.0 in 137.0 W/m2 CLR
07:58 10.5 °F 6.1 °F 1020.9 in WNW 18.5 mph 18.5 mph 74 % 0.0 in 155.0 W/m2 CLR
07:59 10.5 °F 6.1 °F 1020.9 in NW 20.4 mph 20.4 mph 74 % 0.0 in 158.0 W/m2 CLR
08:04 10.6 °F 5.9 °F 1020.9 in WNW 16.7 mph 16.7 mph 73 % 0.0 in 176.0 W/m2 CLR
08:09 10.8 °F 5.9 °F 1020.9 in WNW 24.1 mph 24.1 mph 72 % 0.0 in 199.0 W/m2 CLR
08:14 10.9 °F 6.2 °F 1020.9 in WNW 29.6 mph 29.6 mph 73 % 0.0 in 216.0 W/m2 CLR
08:19 10.9 °F 6.1 °F 1020.9 in NW 25.9 mph 25.9 mph 72 % 0.0 in 232.0 W/m2 CLR
08:24 11.1 °F 6.2 °F 1021.2 in NW 27.8 mph 27.8 mph 72 % 0.0 in 251.0 W/m2 CLR
08:29 11.2 °F 6.1 °F 1021.2 in NW 27.8 mph 27.8 mph 71 % 0.0 in 267.0 W/m2 CLR
08:34 11.3 °F 6.3 °F 1020.9 in NW 25.9 mph 25.9 mph 71 % 0.0 in 281.0 W/m2 CLR
08:39 11.4 °F 6.2 °F 1021.2 in WNW 29.6 mph 29.6 mph 70 % 0.0 in 297.0 W/m2 CLR
08:44 11.5 °F 6.2 °F 1021.2 in NW 27.8 mph 27.8 mph 70 % 0.0 in 315.0 W/m2 CLR
08:49 11.6 °F 6.1 °F 1021.2 in WNW 31.5 mph 31.5 mph 69 % 0.0 in 330.0 W/m2 CLR
08:55 11.7 °F 6.2 °F 1021.2 in WNW 29.6 mph 29.6 mph 69 % 0.0 in 346.0 W/m2 CLR
09:00 11.8 °F 6.5 °F 1021.2 in WNW 31.5 mph 31.5 mph 70 % 0.0 in 360.0 W/m2 CLR
09:05 11.8 °F 6.3 °F 1021.2 in WNW 31.5 mph 31.5 mph 69 % 0.0 in 378.0 W/m2 CLR
09:10 11.9 °F 6.7 °F 1021.2 in WNW 27.8 mph 27.8 mph 70 % 0.0 in 394.0 W/m2 CLR
09:15 12.1 °F 6.6 °F 1021.2 in West 22.2 mph 22.2 mph 69 % 0.0 in 408.0 W/m2 CLR
09:20 12.3 °F 6.8 °F 1021.2 in NNW 27.4 mph 27.4 mph 69 % 0.0 in 424.0 W/m2 CLR
09:25 12.4 °F 6.7 °F 1021.2 in NW 29.6 mph 29.6 mph 68 % 0.0 in 439.0 W/m2 CLR
09:30 12.4 °F 6.7 °F 1021.2 in NW 24.1 mph 24.1 mph 68 % 0.0 in 457.0 W/m2 CLR
09:35 12.7 °F 6.9 °F 1021.2 in WNW 25.9 mph 25.9 mph 68 % 0.0 in 473.0 W/m2 CLR
09:40 12.8 °F 6.6 °F 1021.2 in WNW 27.8 mph 27.8 mph 66 % 0.0 in 489.0 W/m2 CLR
09:45 12.9 °F 6.7 °F 1021.2 in WNW 18.5 mph 18.5 mph 66 % 0.0 in 503.0 W/m2 CLR
09:50 13.0 °F 6.6 °F 1021.2 in WNW 18.5 mph 19.3 mph 65 % 0.0 in 517.0 W/m2 CLR
09:55 13.2 °F 6.5 °F 1021.2 in WNW 18.5 mph 18.5 mph 64 % 0.0 in 534.0 W/m2 CLR
10:00 13.4 °F 6.7 °F 1021.2 in WNW 20.4 mph 20.4 mph 64 % 0.0 in 548.0 W/m2 CLR
10:05 13.6 °F 6.7 °F 1021.2 in WNW 24.1 mph 24.1 mph 63 % 0.0 in 561.0 W/m2 CLR
10:07 13.6 °F 6.7 °F 1021.2 in NW 18.5 mph 18.5 mph 63 % 0.0 in 570.0 W/m2 CLR
10:12 13.7 °F 6.6 °F 1021.2 in NNW 22.2 mph 22.2 mph 62 % 0.0 in 584.0 W/m2 CLR
10:17 13.8 °F 6.7 °F 1021.2 in NW 25.9 mph 25.9 mph 62 % 0.0 in 599.0 W/m2 CLR
10:22 13.9 °F 6.6 °F 1021.2 in NW 22.5 mph 22.5 mph 61 % 0.0 in 612.0 W/m2 CLR
10:27 14.0 °F 6.8 °F 1021.2 in NNW 22.2 mph 22.2 mph 62 % 0.0 in 628.0 W/m2 CLR
10:32 14.2 °F 6.7 °F 1021.2 in NW 27.8 mph 27.8 mph 61 % 0.0 in 642.0 W/m2 CLR
10:37 14.2 °F 6.3 °F 1021.2 in NW 20.9 mph 22.0 mph 59 % 0.0 in 657.0 W/m2 CLR
10:42 14.2 °F 6.3 °F 1021.2 in WNW 31.5 mph 31.5 mph 59 % 0.0 in 670.0 W/m2 CLR
10:47 14.2 °F 6.3 °F 1021.2 in NW 40.7 mph 40.7 mph 59 % 0.0 in 682.0 W/m2 CLR
10:52 14.3 °F 6.2 °F 1021.6 in NW 31.5 mph 31.5 mph 58 % 0.0 in 696.0 W/m2 CLR
10:57 14.3 °F 6.7 °F 1021.2 in North 25.9 mph 25.9 mph 60 % 0.0 in 710.0 W/m2 CLR
11:02 14.5 °F 6.3 °F 1021.6 in NNW 31.5 mph 31.5 mph 58 % 0.0 in 722.0 W/m2 CLR
11:07 14.5 °F 6.6 °F 1021.6 in NNW 25.9 mph 25.9 mph 59 % 0.0 in 735.0 W/m2 CLR
11:12 14.7 °F 6.6 °F 1021.6 in NW 25.7 mph 25.7 mph 58 % 0.0 in 745.0 W/m2 CLR
11:17 14.8 °F 6.9 °F 1021.6 in West 31.5 mph 31.5 mph 59 % 0.0 in 756.0 W/m2 CLR
11:22 14.9 °F 7.0 °F 1021.6 in NW 25.9 mph 25.9 mph 59 % 0.0 in 772.0 W/m2 CLR
11:27 15.3 °F 7.6 °F 1021.6 in NW 24.1 mph 24.1 mph 60 % 0.0 in 779.0 W/m2 CLR
11:32 15.5 °F 7.5 °F 1021.6 in NW 20.4 mph 20.4 mph 59 % 0.0 in 788.0 W/m2 CLR
11:37 15.6 °F 7.4 °F 1021.6 in WNW 24.1 mph 24.1 mph 58 % 0.0 in 800.0 W/m2 CLR
11:42 15.6 °F 7.1 °F 1021.6 in NW 31.5 mph 31.5 mph 57 % 0.0 in 814.0 W/m2 CLR
11:47 15.4 °F 7.2 °F 1021.6 in NW 20.4 mph 20.4 mph 58 % 0.0 in 823.0 W/m2 CLR
11:48 15.4 °F 7.2 °F 1021.6 in WNW 20.4 mph 20.4 mph 58 % 0.0 in 823.0 W/m2 CLR
11:53 15.9 °F 8.1 °F 1021.6 in NW 24.1 mph 24.1 mph 60 % 0.0 in 838.0 W/m2 CLR
11:58 15.9 °F 7.9 °F 1021.6 in West 14.5 mph 14.5 mph 59 % 0.0 in 849.0 W/m2 CLR
12:03 16.0 °F 8.0 °F 1021.6 in NNW 31.5 mph 31.5 mph 59 % 0.0 in 900.0 W/m2 CLR
12:08 15.9 °F 7.7 °F 1021.6 in NNW 24.1 mph 24.1 mph 58 % 0.0 in 861.0 W/m2 CLR
12:13 16.2 °F 7.1 °F 1021.6 in NW 27.8 mph 27.8 mph 55 % 0.0 in 872.0 W/m2 CLR
12:18 16.1 °F 7.0 °F 1021.6 in WNW 24.1 mph 24.1 mph 55 % 0.0 in 886.0 W/m2 CLR
12:23 16.1 °F 7.8 °F 1021.6 in NW 27.4 mph 27.4 mph 58 % 0.0 in 898.0 W/m2 CLR
12:28 16.0 °F 6.9 °F 1021.2 in West 20.9 mph 20.9 mph 55 % 0.0 in 907.0 W/m2 CLR
12:33 16.2 °F 7.2 °F 1021.6 in NNW 31.5 mph 31.5 mph 55 % 0.0 in 926.0 W/m2 CLR
12:38 16.2 °F 7.2 °F 1021.2 in WNW 22.2 mph 22.2 mph 55 % 0.0 in 918.0 W/m2 CLR
12:43 16.5 °F 7.4 °F 1021.2 in WNW 27.8 mph 27.8 mph 55 % 0.0 in 935.0 W/m2 CLR
12:48 16.7 °F 7.6 °F 1021.2 in NW 27.8 mph 27.8 mph 55 % 0.0 in 990.0 W/m2 CLR
12:53 16.6 °F 7.2 °F 1021.2 in WNW 20.4 mph 20.4 mph 54 % 0.0 in 944.0 W/m2 CLR
12:58 16.7 °F 7.6 °F 1021.2 in NW 29.6 mph 29.6 mph 55 % 0.0 in 949.0 W/m2 CLR
13:03 16.8 °F 7.4 °F 1021.2 in NW 18.5 mph 18.5 mph 54 % 0.0 in 944.0 W/m2 CLR
13:08 16.8 °F 7.4 °F 1021.2 in NW 27.8 mph 27.8 mph 54 % 0.0 in 960.0 W/m2 CLR
13:13 16.9 °F 7.6 °F 1020.9 in West 22.2 mph 22.2 mph 54 % 0.0 in 956.0 W/m2 CLR
13:18 17.1 °F 7.7 °F 1020.9 in NW 24.1 mph 24.1 mph 54 % 0.0 in 954.0 W/m2 CLR
13:23 17.2 °F 7.8 °F 1020.9 in NW 24.1 mph 24.1 mph 54 % 0.0 in 967.0 W/m2 CLR
13:28 17.3 °F 7.7 °F 1020.9 in NNW 25.9 mph 25.9 mph 53 % 0.0 in 972.0 W/m2 CLR
13:33 17.5 °F 8.1 °F 1020.9 in NW 25.9 mph 25.9 mph 54 % 0.0 in 960.0 W/m2 CLR
13:38 17.3 °F 7.7 °F 1020.9 in WNW 33.3 mph 33.3 mph 53 % 0.0 in 972.0 W/m2 CLR
13:43 17.3 °F 7.7 °F 1020.9 in West 24.1 mph 24.1 mph 53 % 0.0 in 1048.0 W/m2 CLR
13:48 17.4 °F 7.8 °F 1020.9 in NNW 20.4 mph 20.4 mph 53 % 0.0 in 1063.0 W/m2 CLR
13:53 17.3 °F 8.2 °F 1020.5 in NW 25.7 mph 25.7 mph 55 % 0.0 in 1048.0 W/m2 CLR
13:58 17.3 °F 7.6 °F 1020.9 in NW 25.9 mph 25.9 mph 53 % 0.0 in 1005.0 W/m2 CLR
14:03 17.7 °F 7.7 °F 1020.5 in WNW 25.9 mph 25.9 mph 52 % 0.0 in 1051.0 W/m2 CLR
14:08 17.7 °F 6.9 °F 1020.5 in WSW 18.5 mph 18.5 mph 49 % 0.0 in 1136.0 W/m2 CLR
14:13 17.6 °F 7.3 °F 1020.5 in NW 24.1 mph 24.1 mph 51 % 0.0 in 995.0 W/m2 CLR
14:18 17.8 °F 7.5 °F 1020.5 in NNW 32.2 mph 32.2 mph 51 % 0.0 in 976.0 W/m2 CLR
14:23 17.9 °F 7.1 °F 1020.5 in NNW 25.9 mph 25.9 mph 49 % 0.0 in 965.0 W/m2 CLR
14:28 18.1 °F 7.2 °F 1020.5 in NNW 20.4 mph 20.4 mph 49 % 0.0 in 949.0 W/m2 CLR
14:29 18.2 °F 7.6 °F 1020.5 in WNW 18.5 mph 18.5 mph 50 % 0.0 in 951.0 W/m2 CLR
14:34 18.3 °F 7.7 °F 1020.5 in NW 25.9 mph 25.9 mph 50 % 0.0 in 949.0 W/m2 CLR
14:39 18.4 °F 6.9 °F 1020.5 in West 20.9 mph 20.9 mph 47 % 0.0 in 940.0 W/m2 CLR
14:44 18.3 °F 6.8 °F 1020.5 in NNW 24.1 mph 24.1 mph 47 % 0.0 in 940.0 W/m2 CLR
14:49 18.3 °F 6.4 °F 1020.5 in North 16.7 mph 16.7 mph 46 % 0.0 in 997.0 W/m2 CLR
14:54 18.6 °F 7.1 °F 1020.2 in NNW 25.9 mph 25.9 mph 47 % 0.0 in 933.0 W/m2 CLR
14:59 18.9 °F 6.7 °F 1020.5 in NW 29.6 mph 29.6 mph 45 % 0.0 in 923.0 W/m2 CLR
15:04 18.9 °F 6.1 °F 1020.5 in NW 22.2 mph 22.2 mph 43 % 0.0 in 925.0 W/m2 CLR
15:09 18.8 °F 6.9 °F 1020.5 in NW 24.1 mph 24.1 mph 46 % 0.0 in 918.0 W/m2 CLR
15:14 19.2 °F 7.0 °F 1020.2 in NW 14.5 mph 14.5 mph 45 % 0.0 in 932.0 W/m2 CLR
15:19 19.3 °F 7.1 °F 1020.2 in NNE 16.7 mph 16.7 mph 45 % 0.0 in 935.0 W/m2 CLR
15:24 19.4 °F 6.5 °F 1020.5 in NW 37.0 mph 37.0 mph 43 % 0.0 in 919.0 W/m2 CLR
15:29 19.2 °F 7.0 °F 1020.5 in NW 20.4 mph 20.4 mph 45 % 0.0 in 942.0 W/m2 CLR
15:34 19.3 °F 6.7 °F 1020.5 in NNW 25.9 mph 25.9 mph 44 % 0.0 in 898.0 W/m2 CLR
15:39 19.2 °F 6.6 °F 1020.2 in WNW 22.5 mph 22.5 mph 44 % 0.0 in 875.0 W/m2 CLR
15:44 19.3 °F 6.4 °F 1020.2 in NNW 25.9 mph 25.9 mph 43 % 0.0 in 889.0 W/m2 CLR
15:49 19.3 °F 6.8 °F 1020.2 in NNW 18.5 mph 18.5 mph 44 % 0.0 in 867.0 W/m2 CLR
15:54 19.6 °F 6.6 °F 1020.2 in NNW 20.4 mph 20.4 mph 43 % 0.0 in 854.0 W/m2 CLR
15:59 19.7 °F 6.8 °F 1020.2 in NNW 29.6 mph 29.6 mph 43 % 0.0 in 842.0 W/m2 CLR
16:04 19.6 °F 6.3 °F 1020.2 in NNW 27.8 mph 27.8 mph 42 % 0.0 in 830.0 W/m2 CLR
16:09 19.6 °F 6.3 °F 1020.2 in North 18.5 mph 18.5 mph 42 % 0.0 in 817.0 W/m2 CLR
16:14 19.7 °F 6.4 °F 1019.9 in NNE 14.8 mph 14.8 mph 42 % 0.0 in 807.0 W/m2 CLR
16:19 19.9 °F 7.0 °F 1019.9 in NNE 20.4 mph 20.4 mph 43 % 0.0 in 796.0 W/m2 CLR
16:24 20.0 °F 7.4 °F 1019.9 in NNW 17.7 mph 17.7 mph 44 % 0.0 in 786.0 W/m2 CLR
16:29 19.9 °F 6.9 °F 1019.9 in North 18.5 mph 18.5 mph 43 % 0.0 in 772.0 W/m2 CLR
16:34 19.9 °F 6.9 °F 1019.9 in North 24.1 mph 24.1 mph 43 % 0.0 in 761.0 W/m2 CLR
16:39 19.8 °F 6.9 °F 1019.9 in North 24.1 mph 24.1 mph 43 % 0.0 in 751.0 W/m2 CLR
16:44 20.1 °F 7.1 °F 1019.9 in North 16.7 mph 16.7 mph 43 % 0.0 in 749.0 W/m2 CLR
16:46 20.1 °F 7.1 °F 1019.9 in North 22.2 mph 22.2 mph 43 % 0.0 in 744.0 W/m2 CLR
16:51 19.9 °F 6.9 °F 1019.9 in North 18.5 mph 18.5 mph 43 % 0.0 in 719.0 W/m2 CLR
16:56 20.1 °F 6.7 °F 1019.9 in WNW 20.4 mph 20.4 mph 42 % 0.0 in 707.0 W/m2 CLR
17:01 20.2 °F 6.8 °F 1019.9 in NNE 18.5 mph 18.5 mph 42 % 0.0 in 698.0 W/m2 CLR
17:06 20.0 °F 6.3 °F 1019.5 in NNE 24.1 mph 24.1 mph 41 % 0.0 in 689.0 W/m2 CLR
17:11 20.1 °F 7.1 °F 1019.5 in WNW 20.4 mph 20.4 mph 43 % 0.0 in 673.0 W/m2 CLR
17:16 20.2 °F 6.2 °F 1019.5 in NNW 13.0 mph 13.0 mph 40 % 0.0 in 661.0 W/m2 CLR
17:21 20.3 °F 6.6 °F 1019.5 in NNW 25.9 mph 25.9 mph 41 % 0.0 in 642.0 W/m2 CLR
17:26 19.9 °F 6.7 °F 1019.5 in North 14.8 mph 14.8 mph 42 % 0.0 in 629.0 W/m2 CLR
17:31 20.0 °F 6.0 °F 1019.5 in WNW 1.9 mph   40 % 0.0 in 615.0 W/m2 CLR
17:36 20.4 °F 6.7 °F 1019.5 in North 27.8 mph 27.8 mph 41 % 0.0 in 599.0 W/m2 CLR
17:41 20.4 °F 6.4 °F 1019.5 in NNW 3.7 mph   40 % 0.0 in 587.0 W/m2 CLR
17:46 20.6 °F 6.8 °F 1019.5 in NNW 14.8 mph 14.8 mph 41 % 0.0 in 577.0 W/m2 CLR
17:51 20.5 °F 6.4 °F 1019.5 in North 14.8 mph 14.8 mph 40 % 0.0 in 564.0 W/m2 CLR
17:56 20.3 °F 6.3 °F 1019.5 in NNW 20.9 mph 20.9 mph 40 % 0.0 in 547.0 W/m2 CLR
18:01 20.3 °F 6.2 °F 1019.5 in NNW 18.5 mph 18.5 mph 40 % 0.0 in 527.0 W/m2 CLR
18:06 20.2 °F 6.5 °F 1019.5 in North 24.1 mph 24.1 mph 41 % 0.0 in 513.0 W/m2 CLR
18:11 20.5 °F 6.4 °F 1019.5 in North 18.5 mph 18.5 mph 40 % 0.0 in 499.0 W/m2 CLR
18:16 20.5 °F 6.8 °F 1019.5 in North 16.7 mph 16.7 mph 41 % 0.0 in 483.0 W/m2 CLR
18:21 20.6 °F 6.6 °F 1019.5 in North 20.9 mph 20.9 mph 40 % 0.0 in 461.0 W/m2 CLR
18:26 20.3 °F 6.3 °F 1019.5 in North 22.2 mph 22.2 mph 40 % 0.0 in 448.0 W/m2 CLR
18:31 20.2 °F 6.6 °F 1019.5 in NNW 9.3 mph   41 % 0.0 in 436.0 W/m2 CLR
18:36 20.4 °F 6.7 °F 1019.5 in NNW 14.8 mph 14.8 mph 41 % 0.0 in 422.0 W/m2 CLR
18:41 20.5 °F 6.8 °F 1019.5 in North 18.5 mph 18.5 mph 41 % 0.0 in 406.0 W/m2 CLR
18:46 20.5 °F 6.1 °F 1019.5 in North 18.5 mph 18.5 mph 39 % 0.0 in 387.0 W/m2 CLR
18:51 20.4 °F 6.3 °F 1019.5 in North 20.4 mph 20.4 mph 40 % 0.0 in 371.0 W/m2 CLR
18:56 20.3 °F 6.3 °F 1019.2 in NNW 18.5 mph 18.5 mph 40 % 0.0 in 357.0 W/m2 CLR
19:01 20.2 °F 6.2 °F 1019.2 in North 13.0 mph 13.0 mph 40 % 0.0 in 339.0 W/m2 CLR
19:06 20.4 °F 6.3 °F 1019.2 in NNW 20.4 mph 20.4 mph 40 % 0.0 in 322.0 W/m2 CLR
19:11 20.3 °F 6.3 °F 1019.5 in North 24.1 mph 24.1 mph 40 % 0.0 in 306.0 W/m2 CLR
19:17 20.3 °F 6.3 °F 1019.2 in NNW 14.8 mph 14.8 mph 40 % 0.0 in 292.0 W/m2 CLR
19:21 20.4 °F 6.3 °F 1019.5 in North 14.8 mph 14.8 mph 40 % 0.0 in 276.0 W/m2 CLR
19:26 20.5 °F 6.4 °F 1019.2 in NW 11.1 mph   40 % 0.0 in 262.0 W/m2 CLR
19:32 20.4 °F 6.4 °F 1019.2 in NNW 18.5 mph 18.5 mph 40 % 0.0 in 243.0 W/m2 CLR
19:37 20.4 °F 6.3 °F 1019.2 in WNW 11.1 mph 11.1 mph 40 % 0.0 in 225.0 W/m2 CLR
19:42 20.3 °F 6.3 °F 1019.5 in North 18.5 mph 18.5 mph 40 % 0.0 in 207.0 W/m2 CLR
19:47 20.1 °F 6.1 °F 1019.5 in North 18.5 mph 18.5 mph 40 % 0.0 in 186.0 W/m2 CLR
19:52 20.0 °F 6.0 °F 1019.5 in North 14.5 mph 14.5 mph 40 % 0.0 in 169.0 W/m2 CLR
19:57 19.9 °F 5.9 °F 1019.5 in NNW 18.5 mph 18.5 mph 40 % 0.0 in 153.0 W/m2 CLR
20:02 19.8 °F 6.2 °F 1019.5 in North 18.5 mph 18.5 mph 41 % 0.0 in 135.0 W/m2 CLR
20:07 19.8 °F 6.2 °F 1019.5 in North 13.0 mph 13.0 mph 41 % 0.0 in 118.0 W/m2 CLR
20:12 19.8 °F 5.8 °F 1019.5 in North 13.0 mph 13.0 mph 40 % 0.0 in 102.0 W/m2 CLR
20:17 19.7 °F 6.1 °F 1019.9 in North 13.0 mph 13.0 mph 41 % 0.0 in 86.0 W/m2 CLR
20:22 19.7 °F 6.1 °F 1019.9 in WNW 1.9 mph   41 % 0.0 in 72.0 W/m2 FEW
20:27 19.6 °F 6.3 °F 1019.9 in NNW 16.7 mph 16.7 mph 42 % 0.0 in 62.0 W/m2 SCT
20:32 19.4 °F 6.1 °F 1019.9 in NNW 13.0 mph 13.0 mph 42 % 0.0 in 42.0 W/m2 BKN
20:37 19.3 °F 6.1 °F 1019.9 in NNW 1.9 mph   42 % 0.0 in 35.0 W/m2 BKN
20:42 19.1 °F 6.2 °F 1019.9 in North 16.7 mph 16.7 mph 43 % 0.0 in 28.0 W/m2 BKN
20:47 18.8 °F 6.0 °F 1019.9 in NNW 16.7 mph 16.7 mph 43 % 0.0 in 21.0 W/m2 BKN
20:52 18.7 °F 6.2 °F 1019.9 in NNW 3.7 mph 3.7 mph 44 % 0.0 in 16.0 W/m2 BKN
20:57 18.4 °F 6.3 °F 1020.2 in NNW 3.2 mph 3.2 mph 45 % 0.0 in 12.0 W/m2 BKN
21:02 18.2 °F 6.4 °F 1020.2 in Calm     46 % 0.0 in 11.0 W/m2 BKN
21:07 18.1 °F 6.3 °F 1020.2 in NNW 3.7 mph 3.7 mph 46 % 0.0 in 9.0 W/m2 BKN
21:12 17.9 °F 6.1 °F 1020.2 in NW 5.6 mph 5.6 mph 46 % 0.0 in 5.0 W/m2 OVC
21:17 17.8 °F 6.0 °F 1020.2 in NW 5.6 mph 5.6 mph 46 % 0.0 in 0.0 W/m2 OVC
21:22 17.6 °F 6.2 °F 1020.5 in Calm     47 % 0.0 in 0.0 W/m2 OVC
21:27 17.4 °F 6.3 °F 1020.5 in Calm     48 % 0.0 in 0.0 W/m2 CLR
21:32 17.1 °F 6.3 °F 1020.5 in Calm     49 % 0.0 in 0.0 W/m2 CLR
21:37 16.9 °F 6.4 °F 1020.5 in Calm     50 % 0.0 in 0.0 W/m2 CLR
21:42 16.6 °F 6.4 °F 1020.5 in NW 5.6 mph 5.6 mph 51 % 0.0 in 0.0 W/m2 CLR
21:47 16.4 °F 6.6 °F 1020.9 in NW 6.4 mph 6.4 mph 52 % 0.0 in 0.0 W/m2 CLR
21:52 16.4 °F 6.3 °F 1020.9 in NW 5.6 mph 5.6 mph 51 % 0.0 in 0.0 W/m2 CLR
21:57 16.3 °F 7.0 °F 1020.9 in NW 5.6 mph 5.6 mph 54 % 0.0 in 0.0 W/m2 CLR
22:02 15.8 °F 6.6 °F 1020.9 in WNW 5.6 mph 5.6 mph 54 % 0.0 in 0.0 W/m2 CLR
22:07 15.6 °F 6.6 °F 1020.9 in WNW 5.6 mph 5.6 mph 55 % 0.0 in 0.0 W/m2 CLR
22:12 15.5 °F 6.5 °F 1021.2 in WNW 3.7 mph 3.7 mph 55 % 0.0 in 0.0 W/m2 CLR
22:17 15.4 °F 6.7 °F 1021.2 in WNW 3.7 mph 3.7 mph 56 % 0.0 in 0.0 W/m2 CLR
22:18 15.4 °F 6.7 °F 1021.2 in WNW 3.7 mph 3.7 mph 56 % 0.0 in 0.0 W/m2 CLR
22:23 15.2 °F 6.7 °F 1021.2 in NW 5.6 mph 5.6 mph 57 % 0.0 in 0.0 W/m2 CLR
22:28 15.2 °F 6.4 °F 1021.6 in NW 5.6 mph 5.6 mph 56 % 0.0 in 0.0 W/m2 CLR
22:33 15.4 °F 6.7 °F 1021.6 in NW 3.7 mph   56 % 0.0 in 0.0 W/m2 CLR
22:43 14.9 °F 6.9 °F 1021.6 in NW 5.6 mph 5.6 mph 59 % 0.0 in 0.0 W/m2 CLR
22:48 14.4 °F 6.8 °F 1021.6 in NW 5.6 mph 5.6 mph 60 % 0.0 in 0.0 W/m2 CLR
22:53 14.2 °F 6.7 °F 1021.6 in WNW 3.7 mph 3.7 mph 61 % 0.0 in 0.0 W/m2 CLR
22:58 14.0 °F 6.6 °F 1021.9 in WNW 3.7 mph   61 % 0.0 in 0.0 W/m2 CLR
23:03 13.9 °F 6.9 °F 1021.9 in Calm     63 % 0.0 in 0.0 W/m2 CLR
23:08 13.7 °F 7.3 °F 1022.2 in Calm     65 % 0.0 in 0.0 W/m2 CLR
23:13 13.4 °F 7.2 °F 1022.2 in Calm     66 % 0.0 in 0.0 W/m2 CLR
23:18 13.2 °F 7.2 °F 1022.2 in Calm     67 % 0.0 in 0.0 W/m2 CLR
23:23 13.3 °F 7.3 °F 1022.2 in Calm     67 % 0.0 in 0.0 W/m2 CLR
23:28 13.1 °F 7.6 °F 1022.2 in Calm     69 % 0.0 in 0.0 W/m2 CLR
23:33 12.9 °F 7.3 °F 1022.2 in Calm     69 % 0.0 in 0.0 W/m2 CLR
23:38 12.6 °F 7.3 °F 1022.2 in Calm     70 % 0.0 in 0.0 W/m2 CLR
23:43 12.3 °F 7.2 °F 1022.2 in Calm     71 % 0.0 in 0.0 W/m2 CLR
23:48 12.1 °F 7.4 °F 1022.2 in Calm     73 % 0.0 in 0.0 W/m2 CLR
23:53 12.1 °F 7.3 °F 1022.2 in Calm     73 % 0.0 in 0.0 W/m2 CLR
23:58 12.0 °F 7.3 °F 1022.2 in Calm     73 % 0.0 in 0.0 W/m2 CLR
Lo Temps de Massalio
Compliments of Weather Underground - 1.25 mb